Time,TemperatureF,DewpointF,PressureIn,WindDirection,WindDirectionDegrees,WindSpeedMPH,WindSpeedGustMPH,Humidity,HourlyPrecipIn,Conditions,Clouds,dailyrainin,SoftwareType,DateUTC
2013-08-24 00:01:00,61.9,59.9,29.82,North,349,0.0,0.0,93,0.00,,,0.00,Wunderground v.1.13,2013-08-24 07:01:00,
2013-08-24 00:11:00,61.7,59.7,29.82,North,349,0.0,0.0,93,0.00,,,0.00,Wunderground v.1.13,2013-08-24 07:11:00,
2013-08-24 00:16:00,61.6,59.6,29.82,North,349,0.0,0.0,93,0.00,,,0.00,Wunderground v.1.13,2013-08-24 07:16:00,
2013-08-24 00:21:00,61.5,59.2,29.82,North,349,0.0,0.0,92,0.00,,,0.00,Wunderground v.1.13,2013-08-24 07:21:00,
2013-08-24 00:26:00,61.3,59.0,29.82,North,349,0.0,0.0,92,0.00,,,0.00,Wunderground v.1.13,2013-08-24 07:26:00,
2013-08-24 00:36:00,60.7,58.4,29.82,North,349,0.0,0.0,92,0.00,,,0.00,Wunderground v.1.13,2013-08-24 07:36:00,
2013-08-24 00:41:00,60.5,58.2,29.82,North,349,0.0,0.0,92,0.00,,,0.00,Wunderground v.1.13,2013-08-24 07:41:00,
2013-08-24 00:46:00,60.3,57.7,29.82,North,349,0.0,0.0,91,0.00,,,0.00,Wunderground v.1.13,2013-08-24 07:46:00,
2013-08-24 00:51:00,60.0,57.7,29.82,North,349,0.0,0.0,92,0.00,,,0.00,Wunderground v.1.13,2013-08-24 07:51:00,
2013-08-24 00:56:00,59.9,57.6,29.82,North,349,0.0,0.0,92,0.00,,,0.00,Wunderground v.1.13,2013-08-24 07:56:00,
2013-08-24 01:01:00,59.9,57.9,29.82,North,349,0.0,0.0,93,0.00,,,0.00,Wunderground v.1.13,2013-08-24 08:01:00,
2013-08-24 01:11:00,60.3,58.6,29.83,North,349,0.0,0.0,94,0.00,,,0.00,Wunderground v.1.13,2013-08-24 08:11:00,
2013-08-24 01:16:00,60.1,57.8,29.83,North,349,0.0,0.0,92,0.00,,,0.00,Wunderground v.1.13,2013-08-24 08:16:00,
2013-08-24 01:21:00,59.9,57.3,29.83,North,349,0.0,0.0,91,0.00,,,0.00,Wunderground v.1.13,2013-08-24 08:21:00,
2013-08-24 01:26:00,59.7,57.7,29.83,North,349,0.0,0.0,93,0.00,,,0.00,Wunderground v.1.13,2013-08-24 08:26:00,
2013-08-24 01:36:00,59.7,57.7,29.83,North,349,0.0,0.0,93,0.00,,,0.00,Wunderground v.1.13,2013-08-24 08:36:00,
2013-08-24 01:41:00,59.4,57.1,29.83,North,349,0.0,0.0,92,0.00,,,0.00,Wunderground v.1.13,2013-08-24 08:41:00,
2013-08-24 01:46:00,59.2,56.9,29.83,North,349,0.0,0.0,92,0.00,,,0.00,Wunderground v.1.13,2013-08-24 08:46:00,
2013-08-24 01:51:00,59.1,57.1,29.83,North,349,0.0,0.0,93,0.00,,,0.00,Wunderground v.1.13,2013-08-24 08:51:00,
2013-08-24 02:01:00,59.0,56.7,29.83,North,349,0.0,0.0,92,0.00,,,0.00,Wunderground v.1.13,2013-08-24 09:01:00,
2013-08-24 02:06:00,58.8,56.5,29.83,North,349,0.0,0.0,92,0.00,,,0.00,Wunderground v.1.13,2013-08-24 09:06:00,
2013-08-24 02:11:00,58.8,56.5,29.83,North,349,0.0,0.0,92,0.00,,,0.00,Wunderground v.1.13,2013-08-24 09:11:00,
2013-08-24 02:16:00,58.8,56.5,29.83,North,349,0.0,0.0,92,0.00,,,0.00,Wunderground v.1.13,2013-08-24 09:16:00,
2013-08-24 02:21:00,58.8,57.1,29.83,North,349,0.0,0.0,94,0.00,,,0.00,Wunderground v.1.13,2013-08-24 09:21:00,
2013-08-24 02:31:00,58.5,56.2,29.83,North,349,0.0,0.0,92,0.00,,,0.00,Wunderground v.1.13,2013-08-24 09:31:00,
2013-08-24 02:36:00,58.5,56.2,29.83,NNW,348,0.0,0.0,92,0.00,,,0.00,Wunderground v.1.13,2013-08-24 09:36:00,
2013-08-24 02:41:00,58.5,56.2,29.83,SSW,205,1.0,1.0,92,0.00,,,0.00,Wunderground v.1.13,2013-08-24 09:41:00,
2013-08-24 02:46:00,58.4,56.1,29.83,South,179,1.0,1.0,92,0.00,,,0.00,Wunderground v.1.13,2013-08-24 09:46:00,
2013-08-24 02:56:00,58.3,55.7,29.83,South,179,1.0,1.0,91,0.00,,,0.00,Wunderground v.1.13,2013-08-24 09:56:00,
2013-08-24 03:01:00,58.4,56.1,29.83,South,179,0.0,0.0,92,0.00,,,0.00,Wunderground v.1.13,2013-08-24 10:01:00,
2013-08-24 03:06:00,58.4,55.8,29.83,South,179,0.0,0.0,91,0.00,,,0.00,Wunderground v.1.13,2013-08-24 10:06:00,
2013-08-24 03:11:00,58.3,56.0,29.83,South,179,0.0,0.0,92,0.00,,,0.00,Wunderground v.1.13,2013-08-24 10:11:00,
2013-08-24 03:21:00,58.4,56.4,29.83,South,179,0.0,0.0,93,0.00,,,0.00,Wunderground v.1.13,2013-08-24 10:21:00,
2013-08-24 03:26:00,58.5,56.2,29.83,South,179,0.0,0.0,92,0.00,,,0.00,Wunderground v.1.13,2013-08-24 10:26:00,
2013-08-24 03:31:00,58.4,56.1,29.83,South,179,0.0,0.0,92,0.00,,,0.00,Wunderground v.1.13,2013-08-24 10:31:00,
2013-08-24 03:36:00,58.2,55.9,29.83,South,179,0.0,0.0,92,0.00,,,0.00,Wunderground v.1.13,2013-08-24 10:36:00,
2013-08-24 03:46:00,58.2,56.2,29.83,South,179,0.0,0.0,93,0.00,,,0.00,Wunderground v.1.13,2013-08-24 10:46:00,
2013-08-24 03:51:00,58.2,56.2,29.83,South,179,0.0,0.0,93,0.00,,,0.00,Wunderground v.1.13,2013-08-24 10:51:00,
2013-08-24 03:56:00,58.1,55.8,29.83,South,179,0.0,0.0,92,0.00,,,0.00,Wunderground v.1.13,2013-08-24 10:56:00,
2013-08-24 04:01:00,57.9,55.6,29.83,South,179,0.0,0.0,92,0.00,,,0.00,Wunderground v.1.13,2013-08-24 11:01:00,
2013-08-24 04:11:00,57.4,55.1,29.83,South,179,0.0,0.0,92,0.00,,,0.00,Wunderground v.1.13,2013-08-24 11:11:00,
2013-08-24 04:16:00,57.3,55.0,29.82,South,179,0.0,0.0,92,0.00,,,0.00,Wunderground v.1.13,2013-08-24 11:16:00,
2013-08-24 04:21:00,57.1,54.8,29.82,South,179,0.0,0.0,92,0.00,,,0.00,Wunderground v.1.13,2013-08-24 11:21:00,
2013-08-24 04:26:00,57.0,54.7,29.82,South,179,0.0,0.0,92,0.00,,,0.00,Wunderground v.1.13,2013-08-24 11:26:00,
2013-08-24 04:36:00,56.8,54.5,29.82,South,179,0.0,0.0,92,0.00,,,0.00,Wunderground v.1.13,2013-08-24 11:36:00,
2013-08-24 04:41:00,56.7,54.1,29.82,South,179,0.0,0.0,91,0.00,,,0.00,Wunderground v.1.13,2013-08-24 11:41:00,
2013-08-24 04:46:00,56.6,54.0,29.82,South,179,0.0,0.0,91,0.00,,,0.00,Wunderground v.1.13,2013-08-24 11:46:00,
2013-08-24 04:51:00,56.4,53.8,29.82,South,179,0.0,0.0,91,0.00,,,0.00,Wunderground v.1.13,2013-08-24 11:51:00,
2013-08-24 05:01:00,56.3,54.0,29.82,South,179,0.0,0.0,92,0.00,,,0.00,Wunderground v.1.13,2013-08-24 12:01:00,
2013-08-24 05:06:00,56.3,54.0,29.82,South,179,0.0,0.0,92,0.00,,,0.00,Wunderground v.1.13,2013-08-24 12:06:00,
2013-08-24 05:16:00,56.2,53.9,29.82,South,179,0.0,0.0,92,0.00,,,0.00,Wunderground v.1.13,2013-08-24 12:16:00,
2013-08-24 05:21:00,56.1,53.5,29.82,South,178,0.0,0.0,91,0.00,,,0.00,Wunderground v.1.13,2013-08-24 12:21:00,
2013-08-24 05:26:00,56.0,53.4,29.82,South,178,0.0,0.0,91,0.00,,,0.00,Wunderground v.1.13,2013-08-24 12:26:00,
2013-08-24 05:31:00,55.8,53.2,29.82,South,178,0.0,0.0,91,0.00,,,0.00,Wunderground v.1.13,2013-08-24 12:31:00,
2013-08-24 05:36:00,55.9,53.6,29.82,South,178,0.0,0.0,92,0.00,,,0.00,Wunderground v.1.13,2013-08-24 12:36:00,
2013-08-24 05:46:00,55.9,53.6,29.83,South,176,0.0,0.0,92,0.00,,,0.00,Wunderground v.1.13,2013-08-24 12:46:00,
2013-08-24 05:51:00,55.8,53.2,29.83,South,176,0.0,0.0,91,0.00,,,0.00,Wunderground v.1.13,2013-08-24 12:51:00,
2013-08-24 05:56:00,55.7,53.1,29.83,South,176,0.0,0.0,91,0.00,,,0.00,Wunderground v.1.13,2013-08-24 12:56:00,
2013-08-24 06:06:00,55.5,52.6,29.83,South,176,0.0,0.0,90,0.00,,,0.00,Wunderground v.1.13,2013-08-24 13:06:00,
2013-08-24 06:11:00,55.4,52.8,29.83,South,176,0.0,0.0,91,0.00,,,0.00,Wunderground v.1.13,2013-08-24 13:11:00,
2013-08-24 06:16:00,55.3,52.7,29.83,South,176,0.0,0.0,91,0.00,,,0.00,Wunderground v.1.13,2013-08-24 13:16:00,
2013-08-24 06:26:00,55.3,52.7,29.84,South,176,1.0,1.0,91,0.00,,,0.00,Wunderground v.1.13,2013-08-24 13:26:00,
2013-08-24 06:31:00,55.2,52.6,29.84,South,176,0.0,0.0,91,0.00,,,0.00,Wunderground v.1.13,2013-08-24 13:31:00,
2013-08-24 06:36:00,55.2,52.6,29.84,South,176,0.0,0.0,91,0.00,,,0.00,Wunderground v.1.13,2013-08-24 13:36:00,
2013-08-24 06:46:00,55.3,53.0,29.84,South,176,0.0,0.0,92,0.00,,,0.00,Wunderground v.1.13,2013-08-24 13:46:00,
2013-08-24 06:51:00,55.3,52.7,29.84,South,176,0.0,0.0,91,0.00,,,0.00,Wunderground v.1.13,2013-08-24 13:51:00,
2013-08-24 06:56:00,55.3,52.4,29.84,South,176,0.0,0.0,90,0.00,,,0.00,Wunderground v.1.13,2013-08-24 13:56:00,
2013-08-24 07:01:00,55.2,52.6,29.84,South,176,0.0,0.0,91,0.00,,,0.00,Wunderground v.1.13,2013-08-24 14:01:00,
2013-08-24 07:11:00,55.2,52.6,29.85,South,176,0.0,0.0,91,0.00,,,0.00,Wunderground v.1.13,2013-08-24 14:11:00,
2013-08-24 07:16:00,55.3,52.7,29.85,South,176,0.0,0.0,91,0.00,,,0.00,Wunderground v.1.13,2013-08-24 14:16:00,
2013-08-24 07:21:00,55.4,52.8,29.85,South,176,0.0,0.0,91,0.00,,,0.00,Wunderground v.1.13,2013-08-24 14:21:00,
2013-08-24 07:26:00,55.4,52.8,29.85,South,176,0.0,0.0,91,0.00,,,0.00,Wunderground v.1.13,2013-08-24 14:26:00,
2013-08-24 07:31:00,55.5,52.9,29.85,South,176,0.0,0.0,91,0.00,,,0.00,Wunderground v.1.13,2013-08-24 14:31:00,
2013-08-24 07:41:00,55.6,53.0,29.85,South,176,0.0,0.0,91,0.00,,,0.00,Wunderground v.1.13,2013-08-24 14:41:00,
2013-08-24 07:46:00,55.7,53.4,29.85,South,176,0.0,0.0,92,0.00,,,0.00,Wunderground v.1.13,2013-08-24 14:46:00,
2013-08-24 07:51:00,55.9,53.6,29.85,South,176,0.0,0.0,92,0.00,,,0.00,Wunderground v.1.13,2013-08-24 14:51:00,
2013-08-24 07:56:00,56.1,53.8,29.85,South,176,0.0,0.0,92,0.00,,,0.00,Wunderground v.1.13,2013-08-24 14:56:00,
2013-08-24 08:06:00,56.8,54.8,29.85,South,176,0.0,0.0,93,0.00,,,0.00,Wunderground v.1.13,2013-08-24 15:06:00,
2013-08-24 08:11:00,57.6,56.2,29.85,South,176,0.0,0.0,95,0.00,,,0.00,Wunderground v.1.13,2013-08-24 15:11:00,
2013-08-24 08:16:00,58.7,57.6,29.85,South,176,0.0,0.0,96,0.00,,,0.00,Wunderground v.1.13,2013-08-24 15:16:00,
2013-08-24 08:26:00,60.3,59.2,29.86,South,176,0.0,0.0,96,0.00,,,0.00,Wunderground v.1.13,2013-08-24 15:26:00,
2013-08-24 08:31:00,60.9,59.5,29.86,South,176,0.0,0.0,95,0.00,,,0.00,Wunderground v.1.13,2013-08-24 15:31:00,
2013-08-24 08:36:00,61.3,59.6,29.86,South,176,0.0,0.0,94,0.00,,,0.00,Wunderground v.1.13,2013-08-24 15:36:00,
2013-08-24 08:46:00,62.2,60.5,29.86,South,176,0.0,0.0,94,0.00,,,0.00,Wunderground v.1.13,2013-08-24 15:46:00,
2013-08-24 08:51:00,62.5,60.4,29.86,South,176,0.0,0.0,93,0.00,,,0.00,Wunderground v.1.13,2013-08-24 15:51:00,
2013-08-24 08:56:00,62.8,60.4,29.86,South,176,0.0,0.0,92,0.00,,,0.00,Wunderground v.1.13,2013-08-24 15:56:00,
2013-08-24 09:01:00,63.2,61.1,29.86,South,176,0.0,0.0,93,0.00,,,0.00,Wunderground v.1.13,2013-08-24 16:01:00,
2013-08-24 09:11:00,64.1,61.7,29.86,South,176,0.0,0.0,92,0.00,,,0.00,Wunderground v.1.13,2013-08-24 16:11:00,
2013-08-24 09:16:00,64.5,61.5,29.86,SW,236,0.0,0.0,90,0.00,,,0.00,Wunderground v.1.13,2013-08-24 16:16:00,
2013-08-24 09:21:00,64.7,61.4,29.86,SW,236,0.0,0.0,89,0.00,,,0.00,Wunderground v.1.13,2013-08-24 16:21:00,
2013-08-24 09:31:00,65.4,61.8,29.86,WSW,240,0.0,0.0,88,0.00,,,0.00,Wunderground v.1.13,2013-08-24 16:31:00,
2013-08-24 09:41:00,66.1,61.8,29.86,WSW,253,0.0,0.0,86,0.00,,,0.00,Wunderground v.1.13,2013-08-24 16:41:00,
2013-08-24 09:46:00,66.2,61.9,29.87,West,268,0.0,0.0,86,0.00,,,0.00,Wunderground v.1.13,2013-08-24 16:46:00,
2013-08-24 09:51:00,66.1,61.5,29.87,North,5,0.0,4.0,85,0.00,,,0.00,Wunderground v.1.13,2013-08-24 16:51:00,
2013-08-24 09:56:00,66.2,61.9,29.87,North,360,1.0,1.0,86,0.00,,,0.00,Wunderground v.1.13,2013-08-24 16:56:00,
2013-08-24 10:01:00,66.3,62.0,29.87,North,5,1.0,4.0,86,0.00,,,0.00,Wunderground v.1.13,2013-08-24 17:01:00,
2013-08-24 10:11:00,66.7,62.0,29.87,NNE,12,0.0,0.0,85,0.00,,,0.00,Wunderground v.1.13,2013-08-24 17:11:00,
2013-08-24 10:21:00,67.1,62.1,29.87,NNW,342,1.0,5.0,84,0.00,,,0.00,Wunderground v.1.13,2013-08-24 17:21:00,
2013-08-24 10:26:00,67.3,62.3,29.87,NNE,30,2.0,2.0,84,0.00,,,0.00,Wunderground v.1.13,2013-08-24 17:26:00,
2013-08-24 10:36:00,67.6,61.9,29.88,NE,45,1.0,5.0,82,0.00,,,0.00,Wunderground v.1.13,2013-08-24 17:36:00,
2013-08-24 10:41:00,67.3,62.3,29.88,NE,40,2.0,2.0,84,0.00,,,0.00,Wunderground v.1.13,2013-08-24 17:41:00,
2013-08-24 10:46:00,67.5,62.8,29.87,NE,44,1.0,6.0,85,0.00,,,0.00,Wunderground v.1.13,2013-08-24 17:46:00,
2013-08-24 10:51:00,67.9,62.5,29.87,North,355,1.0,1.0,83,0.00,,,0.00,Wunderground v.1.13,2013-08-24 17:51:00,
2013-08-24 10:56:00,68.2,62.5,29.87,NE,50,1.0,5.0,82,0.00,,,0.00,Wunderground v.1.13,2013-08-24 17:56:00,
2013-08-24 11:01:00,67.4,62.4,29.87,ENE,64,3.0,3.0,84,0.00,,,0.00,Wunderground v.1.13,2013-08-24 18:01:00,
2013-08-24 11:11:00,67.9,62.2,29.87,NE,47,2.0,8.0,82,0.00,,,0.00,Wunderground v.1.13,2013-08-24 18:11:00,
2013-08-24 11:16:00,67.6,62.3,29.87,NE,35,3.0,11.0,83,0.00,,,0.00,Wunderground v.1.13,2013-08-24 18:16:00,
2013-08-24 11:26:00,68.1,62.7,29.86,NNE,28,3.0,4.0,83,0.00,,,0.00,Wunderground v.1.13,2013-08-24 18:26:00,
2013-08-24 11:36:00,69.4,63.3,29.86,NNE,29,3.0,3.0,81,0.00,,,0.00,Wunderground v.1.13,2013-08-24 18:36:00,
2013-08-24 11:41:00,70.1,63.6,29.86,NE,40,1.0,1.0,80,0.00,,,0.00,Wunderground v.1.13,2013-08-24 18:41:00,
2013-08-24 11:46:00,70.3,63.5,29.86,NNE,28,1.0,2.0,79,0.00,,,0.00,Wunderground v.1.13,2013-08-24 18:46:00,
2013-08-24 11:56:00,70.1,62.9,29.86,NNE,15,2.0,5.0,78,0.00,,,0.00,Wunderground v.1.13,2013-08-24 18:56:00,
2013-08-24 12:01:00,69.5,62.7,29.86,NNE,25,4.0,9.0,79,0.00,,,0.00,Wunderground v.1.13,2013-08-24 19:01:00,
2013-08-24 12:11:00,68.8,62.7,29.86,ENE,60,5.0,5.0,81,0.00,,,0.00,Wunderground v.1.13,2013-08-24 19:11:00,
2013-08-24 12:16:00,69.0,62.6,29.86,NNE,32,3.0,3.0,80,0.00,,,0.00,Wunderground v.1.13,2013-08-24 19:16:00,
2013-08-24 12:21:00,69.2,62.8,29.86,NNE,26,3.0,13.0,80,0.00,,,0.00,Wunderground v.1.13,2013-08-24 19:21:00,
2013-08-24 12:26:00,69.5,62.7,29.86,North,5,3.0,3.0,79,0.00,,,0.00,Wunderground v.1.13,2013-08-24 19:26:00,
2013-08-24 12:31:00,69.5,62.7,29.86,ENE,72,3.0,5.0,79,0.00,,,0.00,Wunderground v.1.13,2013-08-24 19:31:00,
2013-08-24 12:36:00,68.8,62.7,29.85,NNE,14,4.0,4.0,81,0.00,,,0.00,Wunderground v.1.13,2013-08-24 19:36:00,
2013-08-24 12:46:00,69.3,63.2,29.85,NNE,17,3.0,4.0,81,0.00,,,0.00,Wunderground v.1.13,2013-08-24 19:46:00,
2013-08-24 12:51:00,69.2,62.4,29.85,ENE,60,1.0,1.0,79,0.00,,,0.00,Wunderground v.1.13,2013-08-24 19:51:00,
2013-08-24 12:56:00,69.1,62.3,29.85,East,84,2.0,2.0,79,0.00,,,0.00,Wunderground v.1.13,2013-08-24 19:56:00,
2013-08-24 13:01:00,68.1,62.0,29.85,ENE,74,3.0,6.0,81,0.00,,,0.00,Wunderground v.1.13,2013-08-24 20:01:00,
2013-08-24 13:11:00,67.2,61.5,29.84,NE,56,6.0,6.0,82,0.00,,,0.00,Wunderground v.1.13,2013-08-24 20:11:00,
2013-08-24 13:16:00,67.3,62.0,29.84,ENE,69,5.0,5.0,83,0.00,,,0.00,Wunderground v.1.13,2013-08-24 20:16:00,
2013-08-24 13:21:00,67.7,62.0,29.84,North,5,3.0,6.0,82,0.00,,,0.00,Wunderground v.1.13,2013-08-24 20:21:00,
2013-08-24 13:26:00,68.0,62.3,29.83,NE,52,4.0,4.0,82,0.00,,,0.00,Wunderground v.1.13,2013-08-24 20:26:00,
2013-08-24 13:31:00,68.1,62.0,29.83,North,360,4.0,4.0,81,0.00,,,0.00,Wunderground v.1.13,2013-08-24 20:31:00,
2013-08-24 13:41:00,67.7,62.0,29.83,NE,56,5.0,5.0,82,0.00,,,0.00,Wunderground v.1.13,2013-08-24 20:41:00,
2013-08-24 13:46:00,68.1,62.4,29.83,NW,315,3.0,3.0,82,0.00,,,0.00,Wunderground v.1.13,2013-08-24 20:46:00,
2013-08-24 13:51:00,68.8,62.7,29.83,NW,317,2.0,2.0,81,0.00,,,0.00,Wunderground v.1.13,2013-08-24 20:51:00,
2013-08-24 13:56:00,69.6,62.8,29.83,NNW,345,1.0,1.0,79,0.00,,,0.00,Wunderground v.1.13,2013-08-24 20:56:00,
2013-08-24 14:06:00,69.7,62.9,29.83,North,9,1.0,1.0,79,0.00,,,0.00,Wunderground v.1.13,2013-08-24 21:06:00,
2013-08-24 14:11:00,69.7,62.9,29.83,NNE,31,1.0,5.0,79,0.00,,,0.00,Wunderground v.1.13,2013-08-24 21:11:00,
2013-08-24 14:16:00,69.9,62.7,29.83,NNW,345,1.0,1.0,78,0.00,,,0.00,Wunderground v.1.13,2013-08-24 21:16:00,
2013-08-24 14:26:00,70.5,62.9,29.82,NE,34,1.0,1.0,77,0.00,,,0.00,Wunderground v.1.13,2013-08-24 21:26:00,
2013-08-24 14:31:00,70.3,62.7,29.82,NNE,29,2.0,2.0,77,0.00,,,0.00,Wunderground v.1.13,2013-08-24 21:31:00,
2013-08-24 14:41:00,69.6,62.4,29.82,NE,35,4.0,4.0,78,0.00,,,0.00,Wunderground v.1.13,2013-08-24 21:41:00,
2013-08-24 14:46:00,69.2,62.4,29.82,NE,44,6.0,6.0,79,0.00,,,0.00,Wunderground v.1.13,2013-08-24 21:46:00,
2013-08-24 14:51:00,69.2,63.1,29.82,East,82,6.0,6.0,81,0.00,,,0.00,Wunderground v.1.13,2013-08-24 21:51:00,
2013-08-24 15:01:00,70.1,63.3,29.82,ENE,61,3.0,6.0,79,0.00,,,0.00,Wunderground v.1.13,2013-08-24 22:01:00,
2013-08-24 15:06:00,69.0,62.9,29.82,NE,41,6.0,11.0,81,0.00,,,0.00,Wunderground v.1.13,2013-08-24 22:06:00,
2013-08-24 15:11:00,68.1,62.7,29.81,ENE,71,8.0,10.0,83,0.00,,,0.00,Wunderground v.1.13,2013-08-24 22:11:00,
2013-08-24 15:16:00,68.0,62.6,29.81,NE,34,8.0,8.0,83,0.00,,,0.00,Wunderground v.1.13,2013-08-24 22:16:00,
2013-08-24 15:21:00,67.9,62.9,29.81,NE,53,8.0,10.0,84,0.00,,,0.00,Wunderground v.1.13,2013-08-24 22:21:00,
2013-08-24 15:31:00,69.2,63.5,29.81,ENE,74,6.0,7.0,82,0.00,,,0.00,Wunderground v.1.13,2013-08-24 22:31:00,
2013-08-24 15:36:00,68.9,62.8,29.80,NE,41,6.0,12.0,81,0.00,,,0.00,Wunderground v.1.13,2013-08-24 22:36:00,
2013-08-24 15:41:00,68.9,62.8,29.80,NE,36,7.0,7.0,81,0.00,,,0.00,Wunderground v.1.13,2013-08-24 22:41:00,
2013-08-24 15:51:00,68.6,62.9,29.80,East,82,7.0,7.0,82,0.00,,,0.00,Wunderground v.1.13,2013-08-24 22:51:00,
2013-08-24 16:01:00,69.3,62.5,29.79,NE,34,3.0,3.0,79,0.00,,,0.00,Wunderground v.1.13,2013-08-24 23:01:00,
2013-08-24 16:06:00,69.5,62.3,29.80,ENE,59,3.0,11.0,78,0.00,,,0.00,Wunderground v.1.13,2013-08-24 23:06:00,
2013-08-24 16:11:00,69.2,62.4,29.80,NE,56,4.0,4.0,79,0.00,,,0.00,Wunderground v.1.13,2013-08-24 23:11:00,
2013-08-24 16:16:00,69.1,62.3,29.80,NNE,19,4.0,4.0,79,0.00,,,0.00,Wunderground v.1.13,2013-08-24 23:16:00,
2013-08-24 16:26:00,69.0,62.2,29.81,NNE,29,4.0,5.0,79,0.00,,,0.00,Wunderground v.1.13,2013-08-24 23:26:00,
2013-08-24 16:31:00,68.7,62.3,29.80,NE,45,5.0,5.0,80,0.00,,,0.00,Wunderground v.1.13,2013-08-24 23:31:00,
2013-08-24 16:41:00,68.0,61.9,29.81,East,88,4.0,4.0,81,0.00,,,0.00,Wunderground v.1.13,2013-08-24 23:41:00,
2013-08-24 16:46:00,67.9,62.5,29.80,NE,53,4.0,4.0,83,0.00,,,0.00,Wunderground v.1.13,2013-08-24 23:46:00,
2013-08-24 16:51:00,68.4,62.7,29.80,ENE,64,2.0,9.0,82,0.00,,,0.00,Wunderground v.1.13,2013-08-24 23:51:00,
2013-08-24 17:01:00,67.8,62.1,29.80,NNE,13,7.0,10.0,82,0.00,,,0.00,Wunderground v.1.13,2013-08-25 00:01:00,
2013-08-24 17:06:00,67.7,62.0,29.80,NNE,25,7.0,7.0,82,0.00,,,0.00,Wunderground v.1.13,2013-08-25 00:06:00,
2013-08-24 17:11:00,67.6,62.3,29.80,NNW,343,8.0,8.0,83,0.00,,,0.00,Wunderground v.1.13,2013-08-25 00:11:00,
2013-08-24 17:16:00,68.0,62.3,29.80,NE,42,7.0,13.0,82,0.00,,,0.00,Wunderground v.1.13,2013-08-25 00:16:00,
2013-08-24 17:26:00,67.8,62.4,29.80,ENE,57,7.0,10.0,83,0.00,,,0.00,Wunderground v.1.13,2013-08-25 00:26:00,
2013-08-24 17:31:00,67.8,62.4,29.80,ENE,77,7.0,7.0,83,0.00,,,0.00,Wunderground v.1.13,2013-08-25 00:31:00,
2013-08-24 17:41:00,68.2,62.5,29.80,ENE,78,6.0,6.0,82,0.00,,,0.00,Wunderground v.1.13,2013-08-25 00:41:00,
2013-08-24 17:46:00,68.1,62.0,29.80,NE,48,7.0,12.0,81,0.00,,,0.00,Wunderground v.1.13,2013-08-25 00:46:00,
2013-08-24 17:56:00,67.8,62.4,29.80,NNE,15,7.0,7.0,83,0.00,,,0.00,Wunderground v.1.13,2013-08-25 00:56:00,
2013-08-24 18:01:00,67.7,62.3,29.79,NE,34,6.0,7.0,83,0.00,,,0.00,Wunderground v.1.13,2013-08-25 01:01:00,
2013-08-24 18:06:00,68.0,62.6,29.79,NE,40,4.0,4.0,83,0.00,,,0.00,Wunderground v.1.13,2013-08-25 01:06:00,
2013-08-24 18:11:00,68.2,62.8,29.80,NW,317,1.0,1.0,83,0.00,,,0.00,Wunderground v.1.13,2013-08-25 01:11:00,
2013-08-24 18:21:00,68.2,62.8,29.80,NNW,327,1.0,1.0,83,0.00,,,0.00,Wunderground v.1.13,2013-08-25 01:21:00,
2013-08-24 18:26:00,68.0,62.6,29.80,NW,322,1.0,1.0,83,0.00,,,0.00,Wunderground v.1.13,2013-08-25 01:26:00,
2013-08-24 18:31:00,67.6,62.3,29.80,NNW,345,1.0,6.0,83,0.00,,,0.00,Wunderground v.1.13,2013-08-25 01:31:00,
2013-08-24 18:41:00,67.2,62.2,29.80,NNW,345,1.0,1.0,84,0.00,,,0.00,Wunderground v.1.13,2013-08-25 01:41:00,
2013-08-24 18:51:00,67.0,62.0,29.80,NNW,336,0.0,0.0,84,0.00,,,0.00,Wunderground v.1.13,2013-08-25 01:51:00,
2013-08-24 18:56:00,66.9,62.2,29.81,NNW,336,0.0,0.0,85,0.00,,,0.00,Wunderground v.1.13,2013-08-25 01:56:00,
2013-08-24 19:01:00,66.8,62.1,29.81,NNW,346,0.0,0.0,85,0.00,,,0.00,Wunderground v.1.13,2013-08-25 02:01:00,
2013-08-24 19:11:00,66.8,62.5,29.81,NNW,346,0.0,0.0,86,0.00,,,0.00,Wunderground v.1.13,2013-08-25 02:11:00,
2013-08-24 19:16:00,66.7,62.0,29.81,NNW,345,0.0,0.0,85,0.00,,,0.00,Wunderground v.1.13,2013-08-25 02:16:00,
2013-08-24 19:21:00,66.4,61.8,29.81,NNW,345,0.0,0.0,85,0.00,,,0.00,Wunderground v.1.13,2013-08-25 02:21:00,
2013-08-24 19:26:00,66.2,61.9,29.81,NNW,345,0.0,0.0,86,0.00,,,0.00,Wunderground v.1.13,2013-08-25 02:26:00,
2013-08-24 19:31:00,66.0,61.7,29.82,NNW,345,0.0,0.0,86,0.00,,,0.00,Wunderground v.1.13,2013-08-25 02:31:00,
2013-08-24 19:41:00,65.5,61.5,29.82,NNW,345,0.0,2.0,87,0.00,,,0.00,Wunderground v.1.13,2013-08-25 02:41:00,
2013-08-24 19:46:00,65.3,61.3,29.82,NNW,344,1.0,1.0,87,0.00,,,0.00,Wunderground v.1.13,2013-08-25 02:46:00,
2013-08-24 19:51:00,65.2,61.6,29.82,NNW,344,1.0,1.0,88,0.00,,,0.00,Wunderground v.1.13,2013-08-25 02:51:00,
2013-08-24 20:01:00,64.8,61.2,29.83,NNW,344,0.0,0.0,88,0.00,,,0.00,Wunderground v.1.13,2013-08-25 03:01:00,
2013-08-24 20:06:00,64.7,61.4,29.83,NNW,344,0.0,0.0,89,0.00,,,0.00,Wunderground v.1.13,2013-08-25 03:06:00,
2013-08-24 20:11:00,64.5,61.2,29.84,NNW,344,0.0,0.0,89,0.00,,,0.00,Wunderground v.1.13,2013-08-25 03:11:00,
2013-08-24 20:21:00,64.3,61.3,29.84,NNW,344,0.0,0.0,90,0.00,,,0.00,Wunderground v.1.13,2013-08-25 03:21:00,
2013-08-24 20:26:00,64.3,61.3,29.84,NNW,344,0.0,0.0,90,0.00,,,0.00,Wunderground v.1.13,2013-08-25 03:26:00,
2013-08-24 20:31:00,64.2,61.2,29.84,NNW,344,0.0,0.0,90,0.00,,,0.00,Wunderground v.1.13,2013-08-25 03:31:00,
2013-08-24 20:36:00,64.1,61.1,29.85,NNW,344,0.0,0.0,90,0.00,,,0.00,Wunderground v.1.13,2013-08-25 03:36:00,
2013-08-24 20:46:00,64.0,61.0,29.85,NNW,344,0.0,0.0,90,0.00,,,0.00,Wunderground v.1.13,2013-08-25 03:46:00,
2013-08-24 20:51:00,63.8,60.8,29.85,NNW,344,0.0,0.0,90,0.00,,,0.00,Wunderground v.1.13,2013-08-25 03:51:00,
2013-08-24 20:56:00,63.7,60.7,29.85,NNW,344,0.0,0.0,90,0.00,,,0.00,Wunderground v.1.13,2013-08-25 03:56:00,
2013-08-24 21:01:00,63.6,60.6,29.85,NNW,344,0.0,0.0,90,0.00,,,0.00,Wunderground v.1.13,2013-08-25 04:01:00,
2013-08-24 21:06:00,63.5,60.5,29.85,NNW,344,0.0,2.0,90,0.00,,,0.00,Wunderground v.1.13,2013-08-25 04:06:00,
2013-08-24 21:11:00,63.3,60.6,29.85,NNW,342,0.0,0.0,91,0.00,,,0.00,Wunderground v.1.13,2013-08-25 04:11:00,
2013-08-24 21:16:00,63.3,60.6,29.86,NNW,343,0.0,0.0,91,0.00,,,0.00,Wunderground v.1.13,2013-08-25 04:16:00,
2013-08-24 21:21:00,63.2,60.5,29.86,NNW,342,0.0,0.0,91,0.00,,,0.00,Wunderground v.1.13,2013-08-25 04:21:00,
2013-08-24 21:31:00,63.2,60.5,29.86,NNW,342,0.0,0.0,91,0.00,,,0.00,Wunderground v.1.13,2013-08-25 04:31:00,
2013-08-24 21:36:00,63.3,60.6,29.86,NNW,343,0.0,0.0,91,0.00,,,0.00,Wunderground v.1.13,2013-08-25 04:36:00,
2013-08-24 21:41:00,63.3,60.6,29.86,NNW,343,0.0,0.0,91,0.00,,,0.00,Wunderground v.1.13,2013-08-25 04:41:00,
2013-08-24 21:46:00,63.3,60.6,29.86,NNW,342,0.0,0.0,91,0.00,,,0.00,Wunderground v.1.13,2013-08-25 04:46:00,
2013-08-24 21:51:00,63.2,60.5,29.86,NNW,342,0.0,0.0,91,0.00,,,0.00,Wunderground v.1.13,2013-08-25 04:51:00,
2013-08-24 21:56:00,63.2,60.5,29.86,NNW,343,0.0,0.0,91,0.00,,,0.00,Wunderground v.1.13,2013-08-25 04:56:00,
2013-08-24 22:06:00,63.2,60.5,29.87,NNW,343,0.0,0.0,91,0.00,,,0.00,Wunderground v.1.13,2013-08-25 05:06:00,
2013-08-24 22:11:00,63.1,60.4,29.87,NNW,343,0.0,0.0,91,0.00,,,0.00,Wunderground v.1.13,2013-08-25 05:11:00,
2013-08-24 22:16:00,63.0,60.3,29.87,NNW,343,0.0,0.0,91,0.00,,,0.00,Wunderground v.1.13,2013-08-25 05:16:00,
2013-08-24 22:26:00,62.9,60.2,29.87,NNW,343,0.0,0.0,91,0.00,,,0.00,Wunderground v.1.13,2013-08-25 05:26:00,
2013-08-24 22:31:00,62.7,60.0,29.87,NNW,343,0.0,0.0,91,0.00,,,0.00,Wunderground v.1.13,2013-08-25 05:31:00,
2013-08-24 22:36:00,62.7,60.0,29.87,NNW,342,0.0,0.0,91,0.00,,,0.00,Wunderground v.1.13,2013-08-25 05:36:00,
2013-08-24 22:41:00,62.6,59.9,29.87,NNW,343,0.0,0.0,91,0.00,,,0.00,Wunderground v.1.13,2013-08-25 05:41:00,
2013-08-24 22:46:00,62.6,60.2,29.87,NNW,343,0.0,0.0,92,0.00,,,0.00,Wunderground v.1.13,2013-08-25 05:46:00,
2013-08-24 22:51:00,62.7,60.3,29.87,NNW,342,0.0,0.0,92,0.00,,,0.00,Wunderground v.1.13,2013-08-25 05:51:00,
2013-08-24 23:01:00,62.8,60.4,29.88,NNW,343,0.0,0.0,92,0.00,,,0.00,Wunderground v.1.13,2013-08-25 06:01:00,
2013-08-24 23:06:00,62.8,60.4,29.88,NNW,343,0.0,0.0,92,0.00,,,0.00,Wunderground v.1.13,2013-08-25 06:06:00,
2013-08-24 23:11:00,62.8,60.4,29.88,NNW,343,0.0,0.0,92,0.00,,,0.00,Wunderground v.1.13,2013-08-25 06:11:00,
2013-08-24 23:16:00,62.8,60.4,29.88,NNW,343,0.0,0.0,92,0.00,,,0.00,Wunderground v.1.13,2013-08-25 06:16:00,
2013-08-24 23:21:00,62.8,60.4,29.88,NNW,343,0.0,0.0,92,0.00,,,0.00,Wunderground v.1.13,2013-08-25 06:21:00,
2013-08-24 23:26:00,62.7,60.3,29.88,NNW,342,0.0,0.0,92,0.00,,,0.00,Wunderground v.1.13,2013-08-25 06:26:00,
2013-08-24 23:36:00,62.7,60.3,29.89,NNW,342,0.0,0.0,92,0.00,,,0.00,Wunderground v.1.13,2013-08-25 06:36:00,
2013-08-24 23:41:00,62.6,60.2,29.89,NNW,343,0.0,0.0,92,0.00,,,0.00,Wunderground v.1.13,2013-08-25 06:41:00,
2013-08-24 23:46:00,62.6,60.2,29.89,NNW,342,0.0,0.0,92,0.00,,,0.00,Wunderground v.1.13,2013-08-25 06:46:00,
2013-08-24 23:51:00,62.6,60.2,29.89,NNW,343,0.0,0.0,92,0.00,,,0.00,Wunderground v.1.13,2013-08-25 06:51:00,
2013-08-24 23:56:00,62.6,60.5,29.89,NNW,342,0.0,0.0,93,0.00,,,0.00,Wunderground v.1.13,2013-08-25 06:56:00,